Weather at Stefanovikio Air Base [CLOSED]

Public forecast

Using degrees Celsius for public forecast. Weather courtesy of forecast.io.

Closest aviation weather report (METAR) to Stefanovikio Air Base

Closest report is Nea Anchialos National Airport, 15.6 nm (28.9 km) S.

2024/05/20 17:50 (retrieved 1 hour ago)

LGBL 201750Z 11007KT CAVOK 21/15 Q1013 RMK FEW090 FEW200 BLU

Closest aviation forecast (TAF) to Stefanovikio Air Base

Closest forecast is Thessaloniki Macedonia International Airport, 63.2 nm (117.0 km) N.

2024/05/20 18:15 (retrieved 44 minutes ago)

TAF LGTS 201700Z 2018/2118 VRB03KT 9999 FEW025 TEMPO 2111/2118 17010KT